Time;durP1;ratioP1;P1;durP2;ratioP2;P2;SDS_P1;SDS_P2;PMS_P1;PMS_P2;Temp;Humidity;BMP_temperature;BMP_pressure;BME280_temperature;BME280_humidity;BME280_pressure;Samples;Min_cycle;Max_cycle;Signal;HPM_P1;HPM_P2
2023/10/24 00:01:21;;;;;;;10.40;5.32;;;;;12.80;95588.00;;;;8346256;28;20220;-60
2023/10/24 00:05:24;;;;;;;9.52;5.28;;;;;12.80;95578.00;;;;8372525;28;20210;-61
2023/10/24 00:09:27;;;;;;;8.65;5.80;;;;;12.90;95575.00;;;;8376023;28;20242;-61
2023/10/24 00:13:31;;;;;;;9.40;6.03;;;;;12.90;95560.00;;;;8384164;28;20227;-60
2023/10/24 00:17:35;;;;;;;11.45;6.25;;;;;12.90;95544.00;;;;8380678;28;20736;-60
2023/10/24 00:21:39;;;;;;;8.63;5.90;;;;;13.00;95535.00;;;;8381328;28;20550;-61
2023/10/24 00:25:42;;;;;;;12.18;5.53;;;;;13.00;95555.00;;;;8376285;28;20321;-60
2023/10/24 00:29:45;;;;;;;9.85;5.78;;;;;13.10;95583.00;;;;8367980;28;20207;-61
2023/10/24 00:33:49;;;;;;;6.55;5.28;;;;;13.10;95606.00;;;;8373976;28;20736;-61
2023/10/24 00:37:52;;;;;;;14.80;5.57;;;;;13.10;95639.00;;;;8376785;28;20195;-60
2023/10/24 00:41:55;;;;;;;10.98;6.47;;;;;13.10;95632.00;;;;8379099;28;20295;-61
2023/10/24 00:45:58;;;;;;;7.40;6.00;;;;;13.10;95628.00;;;;8388157;28;20287;-61
2023/10/24 00:50:08;;;;;;;12.93;5.82;;;;;13.10;95629.00;;;;8364868;28;20765;-61
2023/10/24 00:54:12;;;;;;;9.98;6.32;;;;;13.00;95630.00;;;;8391592;28;20226;-61
2023/10/24 00:58:15;;;;;;;9.43;6.00;;;;;12.90;95651.00;;;;8373807;28;20288;-60
2023/10/24 01:02:19;;;;;;;12.85;6.10;;;;;12.80;95626.00;;;;8378176;28;20235;-61
2023/10/24 01:06:24;;;;;;;10.55;5.75;;;;;12.70;95606.00;;;;8370840;28;20246;-61
2023/10/24 01:10:27;;;;;;;9.77;6.57;;;;;12.60;95599.00;;;;8384893;28;20643;-61
2023/10/24 01:14:30;;;;;;;10.77;6.45;;;;;12.60;95606.00;;;;8376180;28;20222;-61
2023/10/24 01:18:33;;;;;;;10.38;6.88;;;;;12.60;95604.00;;;;8375915;28;20296;-60
2023/10/24 01:22:38;;;;;;;11.70;6.82;;;;;12.50;95593.00;;;;8373972;28;20204;-60
2023/10/24 01:26:42;;;;;;;11.38;6.57;;;;;12.50;95578.00;;;;8375941;28;20725;-60
2023/10/24 01:30:45;;;;;;;12.32;6.57;;;;;12.50;95570.00;;;;8385974;28;20282;-60
2023/10/24 01:34:48;;;;;;;10.18;6.72;;;;;12.40;95549.00;;;;8381716;28;20230;-61
2023/10/24 01:38:53;;;;;;;14.77;7.88;;;;;12.40;95545.00;;;;8389554;28;20214;-61
2023/10/24 01:42:56;;;;;;;13.55;7.35;;;;;12.40;95536.00;;;;8395262;28;20209;-60
2023/10/24 01:46:59;;;;;;;9.13;6.20;;;;;12.40;95534.00;;;;8390897;28;20239;-61
2023/10/24 01:51:03;;;;;;;12.50;6.65;;;;;12.50;95530.00;;;;8384385;28;20199;-61
2023/10/24 01:55:08;;;;;;;11.55;6.82;;;;;12.50;95526.00;;;;8383409;28;20237;-61
2023/10/24 01:59:11;;;;;;;10.18;6.47;;;;;12.50;95517.00;;;;8388614;28;20282;-61
2023/10/24 02:03:15;;;;;;;9.20;6.00;;;;;12.50;95505.00;;;;8385912;28;20242;-60
2023/10/24 02:07:19;;;;;;;13.43;6.63;;;;;12.40;95499.00;;;;8382365;28;20207;-60
2023/10/24 02:11:24;;;;;;;9.20;6.00;;;;;12.40;95512.00;;;;8382304;28;20652;-59
2023/10/24 02:15:27;;;;;;;8.30;6.25;;;;;12.40;95517.00;;;;8377462;28;20250;-60
2023/10/24 02:19:30;;;;;;;11.60;6.88;;;;;12.40;95520.00;;;;8375738;28;20673;-60
2023/10/24 02:23:34;;;;;;;9.15;6.80;;;;;12.40;95510.00;;;;8383097;28;20228;-60
2023/10/24 02:27:38;;;;;;;13.10;6.82;;;;;12.30;95513.00;;;;8377356;28;20218;-60
2023/10/24 02:31:41;;;;;;;11.63;6.18;;;;;12.30;95507.00;;;;8385102;28;20196;-60
2023/10/24 02:35:45;;;;;;;11.13;6.72;;;;;12.20;95519.00;;;;8378225;28;20217;-60
2023/10/24 02:39:48;;;;;;;11.48;6.10;;;;;12.20;95528.00;;;;8382370;28;20722;-61
2023/10/24 02:43:52;;;;;;;11.23;6.28;;;;;12.20;95517.00;;;;8378082;28;20286;-60
2023/10/24 02:47:55;;;;;;;10.07;5.97;;;;;12.10;95537.00;;;;8384664;28;20199;-61
2023/10/24 02:51:58;;;;;;;12.20;6.00;;;;;12.10;95533.00;;;;8382600;28;20256;-60
2023/10/24 02:56:02;;;;;;;8.80;6.13;;;;;12.00;95540.00;;;;8395525;28;20706;-60
2023/10/24 03:00:09;;;;;;;10.52;5.95;;;;;12.00;95542.00;;;;8387845;28;20814;-60
2023/10/24 03:04:13;;;;;;;9.43;5.93;;;;;11.90;95563.00;;;;8352889;22;20271;-60
2023/10/24 03:08:16;;;;;;;8.82;5.88;;;;;11.90;95568.00;;;;8304608;28;20550;-60
2023/10/24 03:12:19;;;;;;;11.18;6.40;;;;;11.80;95570.00;;;;8303074;28;20229;-60
2023/10/24 03:16:23;;;;;;;13.18;5.95;;;;;11.80;95549.00;;;;8309581;28;20289;-61
2023/10/24 03:20:27;;;;;;;12.02;6.65;;;;;11.70;95544.00;;;;8290322;28;20208;-60
2023/10/24 03:24:30;;;;;;;10.70;6.55;;;;;11.60;95546.00;;;;8302453;28;20646;-60
2023/10/24 03:28:33;;;;;;;16.15;6.82;;;;;11.60;95545.00;;;;8299018;28;20205;-62
2023/10/24 03:32:38;;;;;;;10.85;5.55;;;;;11.60;95537.00;;;;8303750;28;20251;-61
2023/10/24 03:36:41;;;;;;;8.57;6.13;;;;;11.40;95532.00;;;;8308090;28;20197;-61
2023/10/24 03:40:44;;;;;;;9.32;6.28;;;;;11.30;95533.00;;;;8311742;28;20205;-61
2023/10/24 03:44:47;;;;;;;12.23;6.78;;;;;11.20;95540.00;;;;8306317;28;20295;-60
2023/10/24 03:48:52;;;;;;;10.32;6.90;;;;;11.10;95535.00;;;;8302531;28;20663;-61
2023/10/24 03:52:55;;;;;;;11.43;6.40;;;;;11.00;95528.00;;;;8308886;28;20984;-62
2023/10/24 03:57:00;;;;;;;8.77;6.47;;;;;10.90;95539.00;;;;8302154;28;20864;-60
2023/10/24 04:01:05;;;;;;;14.50;7.65;;;;;11.00;95545.00;;;;8300190;28;20291;-60
2023/10/24 04:05:10;;;;;;;14.90;8.00;;;;;11.00;95543.00;;;;8305140;28;20240;-61
2023/10/24 04:09:13;;;;;;;13.02;8.32;;;;;11.00;95532.00;;;;8307918;28;20747;-61
2023/10/24 04:13:33;;;;;;;12.68;7.70;;;;;11.00;95540.00;;;;8311969;28;20227;-61
2023/10/24 04:17:36;;;;;;;14.60;7.85;;;;;11.10;95547.00;;;;8311011;28;20611;-61
2023/10/24 04:21:41;;;;;;;14.32;9.05;;;;;11.10;95494.00;;;;8303618;28;20216;-61
2023/10/24 04:25:44;;;;;;;13.85;8.85;;;;;11.20;95469.00;;;;8309027;28;20193;-61
2023/10/24 04:29:48;;;;;;;11.90;7.70;;;;;11.40;95423.00;;;;8307168;28;20993;-61
2023/10/24 04:33:51;;;;;;;14.27;7.70;;;;;11.30;95432.00;;;;8309960;28;20777;-60
2023/10/24 04:37:56;;;;;;;12.93;8.05;;;;;11.40;95449.00;;;;8311300;28;20294;-61
2023/10/24 04:41:59;;;;;;;13.32;7.95;;;;;11.50;95450.00;;;;8313157;28;20206;-61
2023/10/24 04:46:04;;;;;;;12.75;9.05;;;;;11.50;95441.00;;;;8308522;28;20259;-61
2023/10/24 04:50:07;;;;;;;14.93;8.93;;;;;11.50;95434.00;;;;8314038;28;20217;-61
2023/10/24 04:54:12;;;;;;;13.57;9.20;;;;;11.50;95438.00;;;;8312778;28;20311;-61
2023/10/24 04:58:15;;;;;;;14.40;8.90;;;;;11.60;95464.00;;;;8312136;28;20250;-61
2023/10/24 05:02:18;;;;;;;14.00;8.98;;;;;11.60;95478.00;;;;8317835;28;20235;-61
2023/10/24 05:06:21;;;;;;;12.05;8.50;;;;;11.50;95480.00;;;;8307887;28;20196;-61
2023/10/24 05:10:26;;;;;;;13.27;8.10;;;;;11.50;95474.00;;;;8310215;28;20231;-61
2023/10/24 05:14:29;;;;;;;14.18;8.63;;;;;11.40;95467.00;;;;8298396;28;20229;-62
2023/10/24 05:18:32;;;;;;;15.35;9.00;;;;;11.30;95470.00;;;;8310719;28;20287;-61
2023/10/24 05:22:35;;;;;;;13.60;8.95;;;;;11.20;95463.00;;;;8318584;28;20288;-61
2023/10/24 05:26:40;;;;;;;11.77;7.82;;;;;11.00;95478.00;;;;8316166;28;21192;-61
2023/10/24 05:30:43;;;;;;;14.00;8.52;;;;;10.90;95472.00;;;;8314479;28;20268;-62
2023/10/24 05:34:46;;;;;;;16.25;8.80;;;;;10.80;95476.00;;;;8313861;28;20321;-61
2023/10/24 05:38:49;;;;;;;14.60;8.75;;;;;10.70;95474.00;;;;8313645;28;20200;-61
2023/10/24 05:42:53;;;;;;;14.68;8.85;;;;;10.60;95461.00;;;;8304865;28;20286;-61
2023/10/24 05:46:56;;;;;;;17.25;9.02;;;;;10.50;95463.00;;;;8308227;28;20234;-61
2023/10/24 05:51:00;;;;;;;21.80;10.95;;;;;10.40;95472.00;;;;8320533;28;20206;-61
2023/10/24 05:55:03;;;;;;;23.50;11.65;;;;;10.30;95461.00;;;;8315958;28;20302;-61
2023/10/24 05:59:07;;;;;;;19.25;10.63;;;;;10.30;95443.00;;;;8317702;28;20367;-61
2023/10/24 06:03:11;;;;;;;20.10;10.30;;;;;10.30;95428.00;;;;8310888;28;20251;-61
2023/10/24 06:07:14;;;;;;;19.20;11.40;;;;;10.20;95425.00;;;;8311947;28;20208;-61
2023/10/24 06:11:17;;;;;;;22.88;10.75;;;;;10.30;95413.00;;;;8316611;28;20297;-61
2023/10/24 06:15:21;;;;;;;21.85;11.02;;;;;10.40;95396.00;;;;8310693;28;20235;-61
2023/10/24 06:19:25;;;;;;;25.25;10.90;;;;;10.40;95372.00;;;;8310374;28;20197;-61
2023/10/24 06:23:28;;;;;;;16.23;9.73;;;;;10.60;95387.00;;;;8315300;28;20211;-61
2023/10/24 06:27:31;;;;;;;21.55;10.55;;;;;10.80;95398.00;;;;8314372;28;20208;-61
2023/10/24 06:31:35;;;;;;;18.15;10.07;;;;;11.00;95403.00;;;;8311679;28;20953;-61
2023/10/24 06:35:38;;;;;;;23.10;10.77;;;;;11.10;95390.00;;;;8307729;28;20258;-61
2023/10/24 06:39:42;;;;;;;16.88;8.82;;;;;11.20;95386.00;;;;8314828;28;20219;-61
2023/10/24 06:43:45;;;;;;;20.02;9.93;;;;;11.30;95396.00;;;;8312245;28;20558;-61
2023/10/24 06:47:50;;;;;;;19.63;10.80;;;;;11.40;95382.00;;;;8308402;28;20256;-61
2023/10/24 06:51:53;;;;;;;16.58;9.05;;;;;11.50;95374.00;;;;8305022;28;20242;-61
2023/10/24 06:55:59;;;;;;;14.63;9.43;;;;;11.50;95364.00;;;;8305100;28;20319;-62
2023/10/24 07:00:03;;;;;;;17.63;8.85;;;;;11.60;95354.00;;;;8307631;28;20205;-61
2023/10/24 07:04:08;;;;;;;16.90;9.43;;;;;11.60;95353.00;;;;8302207;28;20237;-62
2023/10/24 07:08:12;;;;;;;17.13;10.18;;;;;11.70;95345.00;;;;8301051;28;20714;-61
2023/10/24 07:12:15;;;;;;;15.43;8.48;;;;;11.80;95339.00;;;;8301182;28;20290;-61
2023/10/24 07:16:19;;;;;;;15.95;8.68;;;;;12.00;95343.00;;;;8305802;28;20230;-62
2023/10/24 07:20:23;;;;;;;12.40;7.43;;;;;12.10;95358.00;;;;8304133;28;20205;-61
2023/10/24 07:24:26;;;;;;;13.02;7.43;;;;;12.20;95356.00;;;;8297296;28;20252;-62
2023/10/24 07:28:30;;;;;;;12.10;7.35;;;;;12.40;95364.00;;;;8313819;28;20235;-61
2023/10/24 07:32:33;;;;;;;12.95;6.82;;;;;12.70;95374.00;;;;8298079;28;20237;-61
2023/10/24 07:36:37;;;;;;;12.30;6.53;;;;;12.80;95373.00;;;;8301960;28;20231;-61
2023/10/24 07:40:40;;;;;;;11.85;6.55;;;;;13.00;95375.00;;;;8304931;28;20205;-61
2023/10/24 07:44:44;;;;;;;10.73;6.55;;;;;13.10;95378.00;;;;8311946;28;20233;-61
2023/10/24 07:48:49;;;;;;;11.73;6.50;;;;;13.20;95389.00;;;;8307067;28;20213;-61
2023/10/24 07:52:54;;;;;;;12.63;7.10;;;;;13.40;95372.00;;;;8307151;28;20284;-61
2023/10/24 07:56:57;;;;;;;11.18;7.82;;;;;13.50;95359.00;;;;8304776;28;20231;-61
2023/10/24 08:01:04;;;;;;;8.88;6.45;;;;;13.60;95342.00;;;;8305191;28;20781;-61
2023/10/24 08:05:08;;;;;;;8.10;5.78;;;;;13.50;95329.00;;;;8306230;28;20299;-61
2023/10/24 08:09:13;;;;;;;9.15;6.35;;;;;13.60;95337.00;;;;8306859;28;20198;-61
2023/10/24 08:13:16;;;;;;;10.45;6.13;;;;;13.70;95338.00;;;;8308812;28;20658;-61
2023/10/24 08:17:19;;;;;;;12.48;6.03;;;;;13.80;95332.00;;;;8299043;28;20221;-61
2023/10/24 08:21:22;;;;;;;9.55;6.50;;;;;13.80;95334.00;;;;8309992;28;20220;-61
2023/10/24 08:25:27;;;;;;;7.45;5.97;;;;;13.90;95333.00;;;;8308968;28;20236;-61
2023/10/24 08:29:30;;;;;;;7.30;5.45;;;;;14.10;95338.00;;;;8303347;28;20194;-61
2023/10/24 08:33:34;;;;;;;7.93;5.70;;;;;14.40;95346.00;;;;8301079;28;20288;-61
2023/10/24 08:37:37;;;;;;;11.80;6.90;;;;;14.60;95335.00;;;;8306555;28;20316;-61
2023/10/24 08:41:47;;;;;;;10.15;6.60;;;;;14.80;95315.00;;;;8307903;28;20247;-61
2023/10/24 08:45:52;;;;;;;17.27;7.97;;;;;15.00;95307.00;;;;8302095;28;20197;-61
2023/10/24 08:49:56;;;;;;;11.80;6.68;;;;;15.20;95306.00;;;;8307841;28;20201;-61
2023/10/24 08:54:00;;;;;;;10.32;7.65;;;;;15.20;95309.00;;;;8294480;28;20260;-61
2023/10/24 08:58:07;;;;;;;11.75;7.45;;;;;15.30;95300.00;;;;8306809;28;20417;-61
2023/10/24 09:02:11;;;;;;;11.38;7.45;;;;;15.40;95307.00;;;;8307470;28;20233;-61
2023/10/24 09:06:15;;;;;;;13.60;8.40;;;;;15.50;95309.00;;;;8301949;28;20202;-61
2023/10/24 09:10:18;;;;;;;10.98;7.40;;;;;15.60;95319.00;;;;8310312;28;20573;-61
2023/10/24 09:14:23;;;;;;;11.85;7.40;;;;;15.60;95322.00;;;;8304712;28;20830;-61
2023/10/24 09:18:26;;;;;;;10.23;7.40;;;;;15.60;95317.00;;;;8297488;28;20206;-61
2023/10/24 09:22:30;;;;;;;8.40;6.97;;;;;15.60;95315.00;;;;8303640;28;20266;-61
2023/10/24 09:26:33;;;;;;;16.77;7.28;;;;;15.60;95313.00;;;;8302548;28;20198;-61
2023/10/24 09:30:40;;;;;;;14.32;7.88;;;;;15.70;95315.00;;;;8308213;28;20198;-61
2023/10/24 09:34:44;;;;;;;10.80;7.00;;;;;15.80;95295.00;;;;8305310;28;20287;-61
2023/10/24 09:38:49;;;;;;;8.43;6.75;;;;;15.70;95289.00;;;;8296773;28;20198;-61
2023/10/24 09:42:53;;;;;;;9.95;6.38;;;;;15.60;95288.00;;;;8311220;28;20297;-61
2023/10/24 09:46:59;;;;;;;10.93;6.90;;;;;15.60;95302.00;;;;8298220;28;21103;-61
2023/10/24 09:51:05;;;;;;;11.00;7.15;;;;;15.50;95322.00;;;;8307444;28;20646;-61
2023/10/24 09:55:11;;;;;;;12.73;6.90;;;;;15.50;95322.00;;;;8312213;28;20578;-61
2023/10/24 09:59:18;;;;;;;11.98;6.65;;;;;15.50;95320.00;;;;8301716;28;20780;-62
2023/10/24 10:03:23;;;;;;;13.32;7.88;;;;;15.50;95317.00;;;;8303983;28;20795;-61
2023/10/24 10:07:27;;;;;;;13.32;8.82;;;;;15.50;95317.00;;;;8302207;28;20194;-62
2023/10/24 10:11:32;;;;;;;13.68;9.15;;;;;15.40;95313.00;;;;8305442;28;20221;-62
2023/10/24 10:15:52;;;;;;;12.68;8.63;;;;;15.30;95313.00;;;;8303323;28;20327;-63
2023/10/24 10:20:13;;;;;;;13.63;9.43;;;;;15.10;95300.00;;;;8305882;28;21261;-61
2023/10/24 10:24:41;;;;;;;15.05;8.80;;;;;15.10;95288.00;;;;8303703;28;20561;-63
2023/10/24 10:29:01;;;;;;;15.23;7.97;;;;;14.90;95274.00;;;;8302249;28;20202;-62
2023/10/24 10:33:11;;;;;;;14.93;9.10;;;;;14.80;95249.00;;;;8301946;28;20212;-62
2023/10/24 10:37:19;;;;;;;16.33;9.73;;;;;14.70;95234.00;;;;8302680;28;20218;-62
2023/10/24 10:41:36;;;;;;;15.75;8.77;;;;;14.60;95227.00;;;;8298685;28;20677;-62
2023/10/24 10:45:40;;;;;;;13.38;9.23;;;;;14.50;95216.00;;;;8302577;28;20659;-62
2023/10/24 10:49:45;;;;;;;13.07;8.57;;;;;14.40;95196.00;;;;8305843;28;20201;-63
2023/10/24 10:53:59;;;;;;;16.05;8.65;;;;;14.40;95187.00;;;;8305408;28;20298;-62
2023/10/24 10:58:21;;;;;;;9.50;7.38;;;;;14.30;95193.00;;;;8304302;28;20321;-62
2023/10/24 11:02:49;;;;;;;11.73;7.30;;;;;14.30;95193.00;;;;8299893;28;20570;-62
2023/10/24 11:06:53;;;;;;;12.50;8.07;;;;;14.30;95189.00;;;;8298405;28;20252;-62
2023/10/24 11:11:00;;;;;;;11.75;6.88;;;;;14.40;95178.00;;;;8303111;28;20198;-62
2023/10/24 11:15:28;;;;;;;12.75;7.32;;;;;14.50;95177.00;;;;8304323;28;20204;-63
2023/10/24 11:19:31;;;;;;;10.30;7.00;;;;;14.50;95157.00;;;;8301965;28;20284;-61
2023/10/24 11:23:35;;;;;;;11.40;7.40;;;;;14.30;95153.00;;;;8302611;28;20635;-61
2023/10/24 11:27:41;;;;;;;10.82;6.70;;;;;14.20;95142.00;;;;8299188;28;20828;-60
2023/10/24 11:31:44;;;;;;;15.20;7.40;;;;;14.10;95148.00;;;;8306797;28;20202;-61
2023/10/24 11:35:53;;;;;;;10.75;6.93;;;;;14.10;95152.00;;;;8304278;28;21049;-60
2023/10/24 11:39:58;;;;;;;9.75;7.07;;;;;14.20;95151.00;;;;8304331;28;20296;-61
2023/10/24 11:44:02;;;;;;;9.63;6.70;;;;;14.40;95137.00;;;;8303679;28;20204;-62
2023/10/24 11:48:06;;;;;;;9.70;6.30;;;;;14.40;95128.00;;;;8304856;28;20196;-62
2023/10/24 11:52:10;;;;;;;9.57;6.25;;;;;14.30;95118.00;;;;8305369;28;20202;-62
2023/10/24 11:56:13;;;;;;;8.18;6.38;;;;;14.20;95114.00;;;;8301113;28;20312;-62
2023/10/24 12:00:19;;;;;;;11.23;7.07;;;;;14.30;95116.00;;;;8300358;28;20197;-62
2023/10/24 12:04:26;;;;;;;20.67;7.97;;;;;14.40;95117.00;;;;8301642;28;20257;-62
2023/10/24 12:08:30;;;;;;;11.23;7.53;;;;;14.50;95123.00;;;;8301897;28;20780;-62
2023/10/24 12:12:33;;;;;;;12.93;7.68;;;;;14.60;95122.00;;;;8300106;28;20205;-62
2023/10/24 12:16:39;;;;;;;15.15;7.45;;;;;14.60;95129.00;;;;8299848;28;20240;-63
2023/10/24 12:21:00;;;;;;;11.05;6.75;;;;;14.40;95117.00;;;;8295587;28;20285;-62
2023/10/24 12:25:04;;;;;;;13.70;8.18;;;;;14.20;95111.00;;;;8298317;28;20634;-62
2023/10/24 12:29:10;;;;;;;12.18;8.52;;;;;14.10;95098.00;;;;8304996;28;20280;-62
2023/10/24 12:33:15;;;;;;;9.95;7.90;;;;;14.00;95108.00;;;;8300836;28;20206;-61
2023/10/24 12:37:18;;;;;;;12.23;8.07;;;;;13.90;95095.00;;;;8295210;28;20221;-61
2023/10/24 12:41:22;;;;;;;15.70;8.07;;;;;13.80;95103.00;;;;8296267;28;20206;-61
2023/10/24 12:45:25;;;;;;;15.35;7.93;;;;;13.80;95096.00;;;;8304344;28;20209;-62
2023/10/24 12:49:30;;;;;;;15.23;8.57;;;;;13.80;95093.00;;;;8304384;28;20653;-64
2023/10/24 12:53:36;;;;;;;14.90;9.00;;;;;13.70;95099.00;;;;8300795;28;20239;-64
2023/10/24 12:57:42;;;;;;;16.33;10.20;;;;;13.70;95092.00;;;;8304495;28;20690;-64
2023/10/24 13:01:45;;;;;;;14.88;9.05;;;;;13.70;95100.00;;;;8298397;28;20229;-65
2023/10/24 13:05:50;;;;;;;15.80;9.57;;;;;13.60;95113.00;;;;8293425;28;20212;-66
2023/10/24 13:09:53;;;;;;;17.88;10.48;;;;;13.50;95112.00;;;;8298916;28;21501;-68
2023/10/24 13:13:57;;;;;;;16.42;9.98;;;;;13.40;95112.00;;;;8298795;28;20766;-68
2023/10/24 13:18:00;;;;;;;17.75;10.15;;;;;13.40;95101.00;;;;8297947;28;20251;-68
2023/10/24 13:22:06;;;;;;;15.02;9.38;;;;;13.30;95097.00;;;;8298316;28;20208;-68
2023/10/24 13:26:09;;;;;;;16.80;10.00;;;;;13.30;95113.00;;;;8300965;28;20836;-68
2023/10/24 13:30:14;;;;;;;17.45;9.18;;;;;13.30;95114.00;;;;8305549;28;21043;-68
2023/10/24 13:34:37;;;;;;;18.02;9.85;;;;;13.20;95099.00;;;;8299539;28;20198;-68
2023/10/24 13:39:03;;;;;;;18.25;8.65;;;;;13.20;95105.00;;;;8305253;28;20352;-67
2023/10/24 13:43:07;;;;;;;16.33;8.60;;;;;13.20;95099.00;;;;8308167;28;20213;-68
2023/10/24 13:47:10;;;;;;;20.23;9.30;;;;;13.20;95097.00;;;;8312123;28;20619;-69
2023/10/24 13:51:13;;;;;;;13.90;8.32;;;;;13.20;95100.00;;;;8309332;28;20802;-68
2023/10/24 13:55:18;;;;;;;19.63;9.00;;;;;13.30;95093.00;;;;8309481;28;20206;-66
2023/10/24 13:59:21;;;;;;;16.52;8.98;;;;;13.40;95102.00;;;;8311871;28;21349;-67
2023/10/24 14:03:24;;;;;;;14.60;8.98;;;;;13.50;95108.00;;;;8304098;28;20255;-65
2023/10/24 14:07:28;;;;;;;16.38;8.48;;;;;13.60;95101.00;;;;8307714;28;20205;-65
2023/10/24 14:11:32;;;;;;;16.42;8.73;;;;;13.60;95104.00;;;;8305639;28;20204;-66
2023/10/24 14:15:35;;;;;;;16.15;8.20;;;;;13.60;95088.00;;;;8308194;28;20292;-66
2023/10/24 14:19:40;;;;;;;21.73;9.70;;;;;13.60;95090.00;;;;8306924;28;20254;-66
2023/10/24 14:23:44;;;;;;;20.55;9.45;;;;;13.60;95081.00;;;;8302258;28;20209;-66
2023/10/24 14:27:49;;;;;;;22.85;8.95;;;;;13.70;95075.00;;;;8306841;28;20208;-66
2023/10/24 14:31:52;;;;;;;14.75;8.82;;;;;13.70;95065.00;;;;8302587;28;20210;-66
2023/10/24 14:35:57;;;;;;;18.55;9.90;;;;;13.70;95062.00;;;;8297890;28;20201;-67
2023/10/24 14:40:00;;;;;;;22.95;10.20;;;;;13.70;95057.00;;;;8295822;28;21056;-66
2023/10/24 14:44:07;;;;;;;21.35;11.00;;;;;13.60;95052.00;;;;8302644;28;20293;-66
2023/10/24 14:48:10;;;;;;;21.35;11.75;;;;;13.50;95066.00;;;;8307327;28;20651;-66
2023/10/24 14:52:13;;;;;;;24.80;11.07;;;;;13.50;95080.00;;;;8300091;28;20935;-65
2023/10/24 14:56:17;;;;;;;21.42;11.30;;;;;13.60;95078.00;;;;8307620;28;20259;-65
2023/10/24 15:00:21;;;;;;;19.20;9.77;;;;;13.60;95080.00;;;;8314675;28;20225;-66
2023/10/24 15:04:24;;;;;;;19.60;10.45;;;;;13.60;95087.00;;;;8313020;28;20303;-65
2023/10/24 15:08:28;;;;;;;19.95;10.73;;;;;13.60;95074.00;;;;8310255;28;20263;-65
2023/10/24 15:12:31;;;;;;;27.60;14.48;;;;;13.60;95059.00;;;;8307496;28;20232;-66
2023/10/24 15:16:35;;;;;;;30.67;14.63;;;;;13.60;95058.00;;;;8312102;28;20225;-66
2023/10/24 15:20:40;;;;;;;17.83;10.40;;;;;13.60;95057.00;;;;8312455;28;20201;-66
2023/10/24 15:24:43;;;;;;;18.38;9.20;;;;;13.50;95056.00;;;;8309936;28;20288;-66
2023/10/24 15:28:46;;;;;;;15.95;8.98;;;;;13.50;95077.00;;;;8308193;28;20555;-65
2023/10/24 15:32:51;;;;;;;21.05;11.10;;;;;13.50;95091.00;;;;8309370;28;20276;-66
2023/10/24 15:36:54;;;;;;;25.55;11.02;;;;;13.50;95082.00;;;;8311909;28;20320;-66
2023/10/24 15:40:58;;;;;;;26.52;11.48;;;;;13.50;95069.00;;;;8310138;28;20202;-66
2023/10/24 15:45:01;;;;;;;23.27;11.57;;;;;13.60;95080.00;;;;8310006;28;20206;-67
2023/10/24 15:49:07;;;;;;;25.10;10.95;;;;;13.60;95068.00;;;;8306136;28;20205;-66
2023/10/24 15:53:10;;;;;;;21.77;10.35;;;;;13.60;95074.00;;;;8307513;28;20260;-67
2023/10/24 15:57:13;;;;;;;22.85;10.05;;;;;13.60;95082.00;;;;8302676;28;20264;-66
2023/10/24 16:01:17;;;;;;;21.20;10.70;;;;;13.60;95076.00;;;;8307216;28;20292;-65
2023/10/24 16:05:22;;;;;;;27.23;11.60;;;;;13.60;95077.00;;;;8310414;28;20275;-66
2023/10/24 16:09:26;;;;;;;28.88;11.65;;;;;13.60;95070.00;;;;8314711;28;20634;-66
2023/10/24 16:13:29;;;;;;;24.33;10.73;;;;;13.60;95076.00;;;;8314389;28;20197;-67
2023/10/24 16:17:32;;;;;;;25.00;11.27;;;;;13.50;95078.00;;;;8311869;28;20884;-66
2023/10/24 16:21:37;;;;;;;21.60;11.30;;;;;13.60;95086.00;;;;8307667;28;20193;-67
2023/10/24 16:25:40;;;;;;;22.08;11.07;;;;;13.60;95091.00;;;;8301124;28;20198;-67
2023/10/24 16:29:43;;;;;;;27.15;11.98;;;;;13.50;95092.00;;;;8308805;28;20244;-66
2023/10/24 16:33:46;;;;;;;26.38;11.30;;;;;13.40;95094.00;;;;8308576;28;20209;-65
2023/10/24 16:37:51;;;;;;;27.88;12.52;;;;;13.40;95095.00;;;;8311369;28;20602;-64
2023/10/24 16:41:54;;;;;;;30.63;12.30;;;;;13.40;95089.00;;;;8311913;28;20266;-65
2023/10/24 16:45:57;;;;;;;27.60;13.00;;;;;13.40;95096.00;;;;8310015;28;20206;-64
2023/10/24 16:50:03;;;;;;;27.13;13.18;;;;;13.40;95103.00;;;;8308207;28;20675;-64
2023/10/24 16:54:07;;;;;;;28.73;13.20;;;;;13.40;95100.00;;;;8310409;28;20288;-64
2023/10/24 16:58:10;;;;;;;23.23;11.75;;;;;13.40;95092.00;;;;8309908;28;20316;-63
2023/10/24 17:02:15;;;;;;;30.48;11.32;;;;;13.40;95092.00;;;;8309253;28;20243;-65
2023/10/24 17:06:18;;;;;;;25.35;12.02;;;;;13.50;95095.00;;;;8314341;28;20288;-64
2023/10/24 17:10:24;;;;;;;30.33;12.32;;;;;13.50;95107.00;;;;8317340;28;20200;-64
2023/10/24 17:14:28;;;;;;;22.00;10.82;;;;;13.50;95118.00;;;;8313199;28;20200;-64
2023/10/24 17:18:31;;;;;;;26.23;11.25;;;;;13.50;95116.00;;;;8313802;28;20270;-64
2023/10/24 17:22:35;;;;;;;31.05;12.95;;;;;13.40;95121.00;;;;8317221;28;20288;-64
2023/10/24 17:26:40;;;;;;;36.40;14.35;;;;;13.40;95120.00;;;;8312603;28;20280;-63
2023/10/24 17:30:43;;;;;;;37.58;16.33;;;;;13.50;95121.00;;;;8315078;28;20198;-63
2023/10/24 17:34:46;;;;;;;32.03;14.57;;;;;13.50;95120.00;;;;8316375;28;20209;-64
2023/10/24 17:38:50;;;;;;;30.63;13.65;;;;;13.50;95118.00;;;;8305132;28;20225;-65
2023/10/24 17:42:55;;;;;;;36.90;13.52;;;;;13.60;95112.00;;;;8300468;28;20202;-65
2023/10/24 17:46:58;;;;;;;27.45;11.68;;;;;13.50;95118.00;;;;8315828;28;20385;-65
2023/10/24 17:51:04;;;;;;;22.40;10.50;;;;;13.50;95113.00;;;;8320991;28;20233;-65
2023/10/24 17:55:08;;;;;;;23.95;10.70;;;;;13.50;95098.00;;;;8312986;28;20204;-65
2023/10/24 17:59:12;;;;;;;28.50;10.95;;;;;13.40;95093.00;;;;8311255;28;20237;-65
2023/10/24 18:03:15;;;;;;;31.10;10.80;;;;;13.40;95095.00;;;;8313709;28;20660;-64
2023/10/24 18:07:19;;;;;;;23.50;10.45;;;;;13.40;95099.00;;;;8309677;28;20202;-64
2023/10/24 18:11:29;;;;;;;26.75;11.05;;;;;13.40;95089.00;;;;8309803;28;20288;-64
2023/10/24 18:15:36;;;;;;;27.05;11.20;;;;;13.40;95092.00;;;;8303312;28;20901;-64
2023/10/24 18:19:40;;;;;;;24.55;10.45;;;;;13.30;95102.00;;;;8301711;28;20251;-64
2023/10/24 18:23:44;;;;;;;27.05;10.35;;;;;13.30;95102.00;;;;8303533;28;20209;-64
2023/10/24 18:27:47;;;;;;;27.50;10.98;;;;;13.20;95102.00;;;;8305323;28;20666;-64
2023/10/24 18:31:52;;;;;;;30.02;11.13;;;;;13.20;95113.00;;;;8306508;28;20209;-63
2023/10/24 18:35:55;;;;;;;34.78;15.57;;;;;13.20;95114.00;;;;8305593;28;20671;-63
2023/10/24 18:39:58;;;;;;;31.48;11.70;;;;;13.20;95131.00;;;;8311549;28;20710;-63
2023/10/24 18:44:02;;;;;;;30.42;10.95;;;;;13.20;95120.00;;;;8311822;28;20201;-63
2023/10/24 18:48:06;;;;;;;28.25;10.50;;;;;13.20;95127.00;;;;8312142;28;20452;-64
2023/10/24 18:52:10;;;;;;;29.17;10.63;;;;;13.20;95116.00;;;;8312196;28;20209;-63
2023/10/24 18:56:19;;;;;;;24.98;9.52;;;;;13.10;95118.00;;;;8318846;28;21159;-64
2023/10/24 19:00:22;;;;;;;23.75;8.52;;;;;13.10;95113.00;;;;8310128;28;20367;-63
2023/10/24 19:04:27;;;;;;;28.42;9.10;;;;;13.00;95130.00;;;;8313370;28;20234;-63
2023/10/24 19:08:30;;;;;;;19.30;8.15;;;;;13.00;95120.00;;;;8311789;28;20199;-63
2023/10/24 19:12:34;;;;;;;18.20;7.85;;;;;13.00;95124.00;;;;8311551;28;20816;-63
2023/10/24 19:16:38;;;;;;;17.13;7.90;;;;;13.00;95118.00;;;;8309902;28;20598;-64
2023/10/24 19:20:43;;;;;;;20.92;8.00;;;;;13.00;95128.00;;;;8305909;28;20614;-63
2023/10/24 19:24:47;;;;;;;18.30;8.15;;;;;13.00;95129.00;;;;8309238;28;20322;-63
2023/10/24 19:28:51;;;;;;;17.50;8.13;;;;;12.90;95122.00;;;;8305867;28;20601;-64
2023/10/24 19:32:55;;;;;;;19.90;8.25;;;;;12.90;95124.00;;;;8304413;28;20258;-63
2023/10/24 19:37:06;;;;;;;21.30;9.10;;;;;12.90;95117.00;;;;8304347;28;20291;-63
2023/10/24 19:41:10;;;;;;;24.00;9.00;;;;;12.90;95133.00;;;;8307354;28;20221;-64
2023/10/24 19:45:14;;;;;;;18.27;8.00;;;;;12.90;95136.00;;;;8310523;28;20199;-64
2023/10/24 19:49:18;;;;;;;24.63;8.77;;;;;12.90;95120.00;;;;8320403;28;20287;-64
2023/10/24 19:53:23;;;;;;;18.73;8.00;;;;;12.80;95133.00;;;;8316402;28;20191;-64
2023/10/24 19:57:26;;;;;;;20.13;7.88;;;;;12.80;95119.00;;;;8311337;28;20284;-64
2023/10/24 20:01:31;;;;;;;20.42;8.07;;;;;12.80;95117.00;;;;8308258;28;22079;-64
2023/10/24 20:05:35;;;;;;;20.77;7.80;;;;;12.70;95106.00;;;;8306925;28;20686;-64